Time;durP1;ratioP1;P1;durP2;ratioP2;P2;SDS_P1;SDS_P2;PMS_P1;PMS_P2;Temp;Humidity;BMP_temperature;BMP_pressure;BME280_temperature;BME280_humidity;BME280_pressure;Samples;Min_cycle;Max_cycle;Signal;HPM_P1;HPM_P2
2023/08/02 00:00:27;;;;;;;4.15;2.00;;;16.00;99.90;;;;;;5108789;28;20123;-75
2023/08/02 00:02:53;;;;;;;4.03;1.98;;;16.00;99.90;;;;;;5106681;28;20424;-75
2023/08/02 00:05:19;;;;;;;4.13;1.92;;;16.00;99.90;;;;;;5103657;28;20036;-75
2023/08/02 00:07:44;;;;;;;6.72;2.00;;;16.00;99.90;;;;;;5113022;28;20127;-75
2023/08/02 00:10:10;;;;;;;5.50;1.80;;;16.00;99.90;;;;;;5115551;28;20051;-76
2023/08/02 00:12:36;;;;;;;3.42;1.75;;;16.00;99.90;;;;;;5122229;28;20067;-75
2023/08/02 00:15:01;;;;;;;5.68;2.20;;;16.00;99.90;;;;;;5111699;28;20056;-76
2023/08/02 00:17:27;;;;;;;6.32;1.95;;;16.00;99.90;;;;;;5113835;28;20047;-75
2023/08/02 00:19:53;;;;;;;6.65;2.03;;;16.00;99.90;;;;;;5117541;28;20063;-75
2023/08/02 00:22:18;;;;;;;5.00;1.58;;;16.00;99.90;;;;;;5095346;28;20040;-75
2023/08/02 00:24:44;;;;;;;6.38;1.60;;;15.90;99.90;;;;;;5095853;28;20040;-76
2023/08/02 00:27:09;;;;;;;5.43;1.75;;;16.00;99.90;;;;;;5106230;28;20043;-76
2023/08/02 00:29:35;;;;;;;5.03;1.50;;;15.90;99.90;;;;;;5101247;28;20051;-76
2023/08/02 00:32:00;;;;;;;5.35;1.90;;;15.90;99.90;;;;;;5112892;28;20039;-76
2023/08/02 00:34:26;;;;;;;6.10;1.65;;;15.90;99.90;;;;;;5104847;28;20036;-76
2023/08/02 00:36:52;;;;;;;8.27;2.00;;;15.90;99.90;;;;;;5109677;28;20043;-76
2023/08/02 00:39:18;;;;;;;4.32;1.80;;;15.90;99.90;;;;;;5113438;28;20047;-76
2023/08/02 00:41:44;;;;;;;4.22;1.77;;;15.90;99.90;;;;;;5097945;28;20055;-75
2023/08/02 00:44:10;;;;;;;6.13;2.05;;;15.90;99.90;;;;;;5077139;28;20040;-75
2023/08/02 00:46:36;;;;;;;4.20;1.88;;;15.90;99.90;;;;;;5100234;28;20385;-76
2023/08/02 00:49:02;;;;;;;7.65;2.00;;;15.90;99.90;;;;;;5108726;28;20093;-76
2023/08/02 00:51:30;;;;;;;6.85;2.08;;;15.90;99.90;;;;;;5094230;28;20127;-76
2023/08/02 00:54:02;;;;;;;5.07;2.20;;;15.90;99.90;;;;;;5092481;28;20070;-75
2023/08/02 00:56:29;;;;;;;6.22;2.22;;;15.90;99.90;;;;;;5097564;28;20558;-76
2023/08/02 00:58:55;;;;;;;8.50;2.42;;;15.90;99.90;;;;;;5117790;28;20035;-76
2023/08/02 01:01:21;;;;;;;9.30;2.25;;;15.90;99.90;;;;;;5097206;28;20040;-76
2023/08/02 01:03:47;;;;;;;7.00;2.28;;;15.90;99.90;;;;;;5117858;28;20118;-75
2023/08/02 01:06:30;;;;;;;9.10;2.53;;;15.90;99.90;;;;;;5116264;28;20051;-75
2023/08/02 01:09:15;;;;;;;7.75;2.63;;;15.90;99.90;;;;;;5116080;28;20588;-75
2023/08/02 01:11:49;;;;;;;9.07;2.60;;;15.90;99.90;;;;;;5095690;28;20512;-76
2023/08/02 01:14:20;;;;;;;7.43;2.13;;;15.90;99.90;;;;;;5097391;28;20036;-76
2023/08/02 01:16:48;;;;;;;13.45;2.85;;;15.90;99.90;;;;;;5092753;28;20036;-76
2023/08/02 01:19:20;;;;;;;6.20;2.75;;;15.90;99.90;;;;;;5116069;28;20101;-76
2023/08/02 01:21:46;;;;;;;7.18;2.83;;;15.90;99.90;;;;;;5115502;28;20105;-75
2023/08/02 01:24:15;;;;;;;8.05;2.63;;;15.90;99.90;;;;;;5116165;27;20043;-76
2023/08/02 01:26:47;;;;;;;11.57;2.53;;;15.90;99.90;;;;;;5115145;28;20044;-76
2023/08/02 01:29:17;;;;;;;8.57;2.78;;;15.90;99.90;;;;;;5116908;28;20244;-76
2023/08/02 01:31:44;;;;;;;6.88;2.70;;;15.90;99.90;;;;;;5095671;28;20261;-76
2023/08/02 01:34:11;;;;;;;10.23;3.15;;;15.90;99.90;;;;;;5111812;28;20092;-75
2023/08/02 01:36:37;;;;;;;7.38;3.42;;;15.90;99.90;;;;;;5117144;28;20051;-76
2023/08/02 01:39:05;;;;;;;7.15;2.97;;;15.90;99.90;;;;;;5116136;28;20393;-76
2023/08/02 01:41:31;;;;;;;9.20;3.28;;;15.90;99.90;;;;;;5099014;28;20039;-76
2023/08/02 01:43:57;;;;;;;7.00;2.92;;;15.90;99.90;;;;;;5115034;28;20481;-76
2023/08/02 01:46:22;;;;;;;9.13;3.17;;;15.90;99.90;;;;;;5090787;28;20401;-77
2023/08/02 01:48:48;;;;;;;8.90;3.40;;;15.90;99.90;;;;;;5115455;28;20114;-76
2023/08/02 01:51:14;;;;;;;6.80;3.20;;;15.90;99.90;;;;;;5115973;28;20043;-76
2023/08/02 01:53:39;;;;;;;10.85;3.65;;;15.90;99.90;;;;;;5115691;28;20039;-76
2023/08/02 01:56:05;;;;;;;11.80;3.50;;;15.90;99.90;;;;;;5093608;28;20040;-76
2023/08/02 01:58:31;;;;;;;11.27;3.40;;;15.80;99.90;;;;;;5096320;28;20048;-76
2023/08/02 02:00:56;;;;;;;6.07;3.40;;;15.80;99.90;;;;;;5094579;28;20055;-76
2023/08/02 02:03:22;;;;;;;10.75;3.35;;;15.80;99.90;;;;;;5094912;28;20036;-76
2023/08/02 02:05:54;;;;;;;8.85;3.70;;;15.80;99.90;;;;;;5099570;28;20478;-76
2023/08/02 02:08:22;;;;;;;9.40;3.72;;;15.80;99.90;;;;;;5098937;28;20032;-76
2023/08/02 02:10:52;;;;;;;10.07;3.47;;;15.80;99.90;;;;;;5094195;28;20044;-75
2023/08/02 02:13:18;;;;;;;13.60;4.15;;;15.80;99.90;;;;;;5108904;28;20043;-76
2023/08/02 02:15:43;;;;;;;11.02;4.32;;;15.80;99.90;;;;;;5116282;28;20066;-76
2023/08/02 02:18:09;;;;;;;11.93;3.50;;;15.80;99.90;;;;;;5104059;27;20055;-76
2023/08/02 02:20:35;;;;;;;10.02;3.40;;;15.80;99.90;;;;;;5096038;28;20097;-76
2023/08/02 02:23:00;;;;;;;12.80;3.47;;;15.70;99.90;;;;;;5106935;28;20047;-76
2023/08/02 02:25:26;;;;;;;13.23;3.70;;;15.80;99.90;;;;;;5095136;28;20047;-76
2023/08/02 02:27:52;;;;;;;12.50;3.30;;;15.80;99.90;;;;;;5094570;28;20440;-75
2023/08/02 02:30:17;;;;;;;12.60;3.40;;;15.80;99.90;;;;;;5095585;28;20507;-75
2023/08/02 02:32:43;;;;;;;9.40;3.67;;;15.80;99.90;;;;;;5096026;28;20043;-75
2023/08/02 02:35:12;;;;;;;11.88;4.10;;;15.70;99.90;;;;;;5094960;28;20044;-75
2023/08/02 02:37:38;;;;;;;14.48;3.60;;;15.80;99.90;;;;;;5096507;28;20042;-76
2023/08/02 02:40:05;;;;;;;8.32;3.58;;;15.80;99.90;;;;;;5103042;28;20517;-76
2023/08/02 02:42:31;;;;;;;8.20;3.17;;;15.70;99.90;;;;;;5107275;28;20071;-79
2023/08/02 02:44:57;;;;;;;10.13;4.35;;;15.70;99.90;;;;;;5109076;28;20810;-76
2023/08/02 02:47:22;;;;;;;14.65;4.13;;;15.70;99.90;;;;;;5113594;28;20088;-77
2023/08/02 02:49:48;;;;;;;10.27;3.50;;;15.70;99.90;;;;;;5115655;28;20075;-75
2023/08/02 02:52:16;;;;;;;8.85;3.40;;;15.70;99.90;;;;;;5100410;28;20126;-75
2023/08/02 02:54:42;;;;;;;8.30;3.83;;;15.70;99.90;;;;;;5115641;28;20115;-75
2023/08/02 02:57:08;;;;;;;9.88;3.60;;;15.70;99.90;;;;;;5113225;28;20044;-76
2023/08/02 02:59:33;;;;;;;13.82;3.60;;;15.80;99.90;;;;;;5099802;28;20617;-76
2023/08/02 03:01:59;;;;;;;16.25;5.13;;;15.70;99.90;;;;;;5096684;28;20054;-76
2023/08/02 03:04:26;;;;;;;18.95;4.40;;;15.70;99.90;;;;;;5109854;28;20393;-76
2023/08/02 03:06:52;;;;;;;9.90;4.15;;;15.70;99.90;;;;;;5095008;28;20431;-76
2023/08/02 03:09:18;;;;;;;15.15;4.10;;;15.70;99.90;;;;;;5092996;28;20047;-76
2023/08/02 03:11:44;;;;;;;16.90;4.25;;;15.70;99.90;;;;;;5094046;28;20097;-76
2023/08/02 03:14:09;;;;;;;14.15;4.10;;;15.70;99.90;;;;;;5110339;28;20044;-75
2023/08/02 03:16:35;;;;;;;12.55;4.63;;;15.70;99.90;;;;;;5094376;28;20044;-76
2023/08/02 03:19:01;;;;;;;12.65;4.38;;;15.70;99.90;;;;;;5096594;28;20059;-76
2023/08/02 03:21:26;;;;;;;13.57;4.03;;;15.70;99.90;;;;;;5093501;28;20119;-76
2023/08/02 03:23:52;;;;;;;13.00;4.20;;;15.70;99.90;;;;;;5111507;28;20039;-76
2023/08/02 03:26:18;;;;;;;17.85;4.25;;;15.70;99.90;;;;;;5098045;28;20439;-75
2023/08/02 03:28:43;;;;;;;12.05;4.63;;;15.70;99.90;;;;;;5108807;28;20481;-76
2023/08/02 03:31:09;;;;;;;14.32;4.55;;;15.70;99.90;;;;;;5114813;28;20039;-76
2023/08/02 03:33:34;;;;;;;15.18;4.90;;;15.70;99.90;;;;;;5111061;28;20043;-76
2023/08/02 03:36:00;;;;;;;20.17;4.60;;;15.70;99.90;;;;;;5094388;28;20039;-75
2023/08/02 03:38:26;;;;;;;14.95;4.40;;;15.70;99.90;;;;;;5104697;28;20048;-76
2023/08/02 03:40:53;;;;;;;13.32;4.40;;;15.70;99.90;;;;;;5114567;28;20036;-76
2023/08/02 03:43:19;;;;;;;12.38;4.47;;;15.70;99.90;;;;;;5094208;28;20128;-77
2023/08/02 03:45:44;;;;;;;14.10;4.55;;;15.70;99.90;;;;;;5114597;28;20078;-76
2023/08/02 03:48:10;;;;;;;14.30;4.40;;;15.70;99.90;;;;;;5111228;28;20397;-75
2023/08/02 03:50:36;;;;;;;14.50;4.00;;;15.70;99.90;;;;;;5111896;28;20043;-76
2023/08/02 03:53:01;;;;;;;14.60;4.53;;;15.70;99.90;;;;;;5093669;28;20032;-76
2023/08/02 03:55:27;;;;;;;16.27;4.45;;;15.70;99.90;;;;;;5091971;28;20486;-76
2023/08/02 03:57:52;;;;;;;23.92;6.18;;;15.60;99.90;;;;;;5094028;28;20066;-77
2023/08/02 04:00:18;;;;;;;18.98;5.38;;;15.60;99.90;;;;;;5108855;28;20040;-76
2023/08/02 04:02:44;;;;;;;19.20;4.82;;;15.60;99.90;;;;;;5094484;28;20044;-76
2023/08/02 04:05:10;;;;;;;13.82;5.05;;;15.60;99.90;;;;;;5114250;28;20040;-76
2023/08/02 04:07:36;;;;;;;15.32;5.40;;;15.60;99.90;;;;;;5095846;28;20083;-76
2023/08/02 04:10:02;;;;;;;16.30;5.47;;;15.60;99.90;;;;;;5110121;28;20083;-76
2023/08/02 04:12:28;;;;;;;18.60;6.07;;;15.60;99.90;;;;;;5108736;28;20036;-76
2023/08/02 04:14:54;;;;;;;17.40;4.50;;;15.60;99.90;;;;;;5092173;28;20051;-76
2023/08/02 04:17:20;;;;;;;17.95;5.60;;;15.60;99.90;;;;;;5075493;28;20040;-77
2023/08/02 04:19:46;;;;;;;17.70;5.40;;;15.60;99.90;;;;;;5107531;28;20054;-77
2023/08/02 04:22:11;;;;;;;16.77;5.55;;;15.60;99.90;;;;;;5097307;28;20036;-77
2023/08/02 04:24:37;;;;;;;17.92;5.75;;;15.50;99.90;;;;;;5113028;28;20161;-76
2023/08/02 04:27:03;;;;;;;23.05;6.10;;;15.60;99.90;;;;;;5112847;28;20385;-76
2023/08/02 04:29:29;;;;;;;20.65;6.30;;;15.60;99.90;;;;;;5107697;28;20494;-77
2023/08/02 04:31:55;;;;;;;18.35;6.20;;;15.60;99.90;;;;;;5113640;28;20049;-77
2023/08/02 04:34:20;;;;;;;23.83;5.82;;;15.60;99.90;;;;;;5118296;28;20128;-76
2023/08/02 04:36:46;;;;;;;26.60;7.50;;;15.60;99.90;;;;;;5112675;27;20078;-77
2023/08/02 04:39:12;;;;;;;17.90;6.15;;;15.60;99.90;;;;;;5112477;28;20048;-77
2023/08/02 04:41:38;;;;;;;21.52;6.40;;;15.60;99.90;;;;;;5103096;28;20043;-77
2023/08/02 04:44:03;;;;;;;20.58;5.50;;;15.60;99.90;;;;;;5121395;27;20542;-77
2023/08/02 04:46:29;;;;;;;14.60;5.63;;;15.60;99.90;;;;;;5116819;28;20531;-76
2023/08/02 04:48:56;;;;;;;39.15;7.97;;;15.60;99.90;;;;;;5091698;28;20043;-77
2023/08/02 04:51:21;;;;;;;15.52;5.82;;;15.60;99.90;;;;;;5109029;28;20405;-77
2023/08/02 04:53:48;;;;;;;17.38;6.63;;;15.60;99.90;;;;;;5100883;28;20040;-77
2023/08/02 04:56:17;;;;;;;18.25;5.97;;;15.60;99.90;;;;;;5100384;28;20387;-76
2023/08/02 04:58:43;;;;;;;20.63;6.57;;;15.60;99.90;;;;;;5109109;28;20070;-77
2023/08/02 05:01:09;;;;;;;15.68;6.68;;;15.60;99.90;;;;;;5118576;27;20396;-76
2023/08/02 05:03:35;;;;;;;21.25;6.72;;;15.50;99.90;;;;;;5119895;27;20085;-77
2023/08/02 05:06:02;;;;;;;16.42;6.28;;;15.60;99.90;;;;;;5118898;28;20184;-75
2023/08/02 05:08:30;;;;;;;29.27;7.22;;;15.60;99.90;;;;;;5119369;28;20055;-76
2023/08/02 05:10:56;;;;;;;17.83;6.82;;;15.60;99.90;;;;;;5118303;27;20118;-76
2023/08/02 05:13:23;;;;;;;16.58;6.32;;;15.60;99.90;;;;;;5120481;27;20120;-76
2023/08/02 05:15:49;;;;;;;14.75;6.35;;;15.50;99.90;;;;;;5120273;28;20043;-77
2023/08/02 05:18:15;;;;;;;21.17;7.43;;;15.50;99.90;;;;;;5113649;28;20081;-77
2023/08/02 05:20:40;;;;;;;22.05;7.82;;;15.50;99.90;;;;;;5120380;27;20131;-77
2023/08/02 05:23:06;;;;;;;22.67;7.45;;;15.50;99.90;;;;;;5118681;28;20040;-77
2023/08/02 05:25:33;;;;;;;20.77;6.68;;;15.60;99.90;;;;;;5101951;28;20492;-77
2023/08/02 05:27:59;;;;;;;15.73;6.85;;;15.60;99.90;;;;;;5100907;28;20055;-77
2023/08/02 05:30:26;;;;;;;20.10;7.72;;;15.60;99.90;;;;;;5120453;27;20044;-77
2023/08/02 05:32:52;;;;;;;19.98;6.85;;;15.60;99.90;;;;;;5118914;27;20080;-77
2023/08/02 05:35:18;;;;;;;17.00;6.80;;;15.60;99.90;;;;;;5104983;27;20044;-77
2023/08/02 05:37:43;;;;;;;15.65;7.45;;;15.60;99.90;;;;;;5103583;28;20043;-77
2023/08/02 05:40:09;;;;;;;19.15;7.22;;;15.60;99.90;;;;;;5120472;27;20063;-76
2023/08/02 05:42:35;;;;;;;21.85;7.80;;;15.60;99.90;;;;;;5114407;27;20040;-77
2023/08/02 05:45:04;;;;;;;20.98;7.57;;;15.60;99.90;;;;;;5095805;28;20052;-78
2023/08/02 05:47:31;;;;;;;19.92;7.13;;;15.60;99.90;;;;;;5096413;28;20123;-77
2023/08/02 05:49:57;;;;;;;25.48;7.65;;;15.60;99.90;;;;;;5112250;28;20047;-77
2023/08/02 05:52:23;;;;;;;21.80;6.85;;;15.60;99.90;;;;;;5096335;28;20040;-77
2023/08/02 05:54:48;;;;;;;16.23;7.47;;;15.70;99.90;;;;;;5078149;28;20071;-76
2023/08/02 05:57:14;;;;;;;21.35;6.85;;;15.70;99.90;;;;;;5078127;28;20043;-77
2023/08/02 05:59:40;;;;;;;15.82;7.30;;;15.80;99.90;;;;;;5101158;28;20040;-77
2023/08/02 06:02:07;;;;;;;20.52;6.95;;;15.90;99.90;;;;;;5094749;28;20047;-78
2023/08/02 06:04:38;;;;;;;17.77;7.03;;;16.00;99.90;;;;;;5110648;28;20135;-78
2023/08/02 06:07:04;;;;;;;17.35;7.60;;;16.00;99.90;;;;;;5114058;27;20047;-76
2023/08/02 06:09:31;;;;;;;26.38;7.13;;;15.90;99.90;;;;;;5110351;28;20046;-77
2023/08/02 06:11:57;;;;;;;14.45;6.13;;;16.00;99.90;;;;;;5116220;28;20044;-77
2023/08/02 06:14:22;;;;;;;12.90;5.75;;;15.90;99.90;;;;;;5116794;28;20039;-77
2023/08/02 06:16:48;;;;;;;18.10;7.05;;;15.90;99.90;;;;;;5096526;28;20043;-78
2023/08/02 06:19:14;;;;;;;13.07;6.47;;;15.90;99.90;;;;;;5107823;28;20052;-76
2023/08/02 06:21:40;;;;;;;16.77;6.28;;;15.90;99.90;;;;;;5116445;28;20138;-77
2023/08/02 06:24:06;;;;;;;20.13;8.05;;;16.00;99.90;;;;;;5097392;28;20040;-77
2023/08/02 06:26:32;;;;;;;16.42;7.47;;;16.00;99.90;;;;;;5094629;28;20089;-76
2023/08/02 06:28:58;;;;;;;14.25;7.47;;;16.10;99.90;;;;;;5103985;28;20039;-76
2023/08/02 06:31:23;;;;;;;20.13;7.13;;;16.20;99.90;;;;;;5114875;27;20054;-78
2023/08/02 06:33:49;;;;;;;15.55;6.65;;;16.20;99.90;;;;;;5114961;28;20039;-77
2023/08/02 06:36:15;;;;;;;14.75;6.57;;;16.20;99.90;;;;;;5096107;28;20044;-77
2023/08/02 06:38:40;;;;;;;15.30;6.80;;;16.30;99.90;;;;;;5094980;28;20119;-77
2023/08/02 06:41:06;;;;;;;15.63;6.63;;;16.30;99.90;;;;;;5113819;27;20120;-77
2023/08/02 06:43:32;;;;;;;16.55;6.95;;;16.30;99.90;;;;;;5098464;28;20059;-77
2023/08/02 06:45:58;;;;;;;14.98;7.35;;;16.30;99.90;;;;;;5094308;28;20503;-76
2023/08/02 06:48:25;;;;;;;17.73;7.50;;;16.30;99.90;;;;;;5096608;28;20054;-77
2023/08/02 06:50:51;;;;;;;18.97;6.80;;;16.40;99.90;;;;;;5097287;28;20089;-77
2023/08/02 06:53:17;;;;;;;16.90;6.82;;;16.40;99.90;;;;;;5096814;28;20127;-77
2023/08/02 06:55:43;;;;;;;17.00;6.90;;;16.50;99.90;;;;;;5096158;28;20119;-77
2023/08/02 06:58:09;;;;;;;14.05;6.93;;;16.50;99.90;;;;;;5095883;28;20040;-77
2023/08/02 07:00:34;;;;;;;13.75;6.80;;;16.60;99.90;;;;;;5108714;28;20489;-75
2023/08/02 07:03:01;;;;;;;18.73;7.93;;;16.60;99.90;;;;;;5110767;28;20040;-75
2023/08/02 07:05:28;;;;;;;15.70;7.72;;;16.60;99.90;;;;;;5112004;28;20043;-77
2023/08/02 07:07:58;;;;;;;18.88;7.90;;;16.50;99.90;;;;;;5092772;28;20054;-77
2023/08/02 07:10:25;;;;;;;14.00;8.13;;;16.50;99.90;;;;;;5110465;28;20051;-77
2023/08/02 07:12:51;;;;;;;17.02;8.32;;;16.50;99.90;;;;;;5093736;28;20047;-76
2023/08/02 07:15:18;;;;;;;15.00;8.43;;;16.50;99.90;;;;;;5093398;28;20048;-76
2023/08/02 07:17:44;;;;;;;15.73;8.18;;;16.50;99.90;;;;;;5094822;28;20086;-76
2023/08/02 07:20:11;;;;;;;17.58;8.18;;;16.60;99.90;;;;;;5109509;28;20059;-76
2023/08/02 07:22:37;;;;;;;15.63;7.80;;;16.60;99.90;;;;;;5094464;28;20044;-77
2023/08/02 07:25:03;;;;;;;17.73;7.47;;;16.60;99.90;;;;;;5110651;28;20043;-77
2023/08/02 07:27:29;;;;;;;16.73;7.30;;;16.70;99.90;;;;;;5094712;28;20032;-76
2023/08/02 07:29:58;;;;;;;17.38;7.57;;;16.60;99.90;;;;;;5110385;28;20039;-76
2023/08/02 07:32:23;;;;;;;15.02;7.38;;;16.60;99.90;;;;;;5108958;28;20048;-77
2023/08/02 07:34:49;;;;;;;15.93;7.03;;;16.60;99.90;;;;;;5088794;28;20040;-76
2023/08/02 07:37:15;;;;;;;11.25;6.32;;;16.60;99.90;;;;;;5115204;28;20078;-77
2023/08/02 07:39:41;;;;;;;18.15;6.72;;;16.60;99.90;;;;;;5102342;28;20051;-76
2023/08/02 07:42:09;;;;;;;14.80;6.53;;;16.60;99.90;;;;;;5095033;28;20044;-77
2023/08/02 07:44:36;;;;;;;14.18;6.40;;;16.60;99.90;;;;;;5102920;28;20043;-76
2023/08/02 07:47:01;;;;;;;19.95;6.28;;;16.50;99.90;;;;;;5105633;28;20062;-77
2023/08/02 07:49:27;;;;;;;14.30;6.07;;;16.50;99.90;;;;;;5107893;28;20032;-77
2023/08/02 07:51:54;;;;;;;19.40;6.25;;;16.50;99.90;;;;;;5094811;28;20401;-77
2023/08/02 07:54:20;;;;;;;15.38;5.28;;;16.50;99.90;;;;;;5100334;28;20097;-78
2023/08/02 07:56:46;;;;;;;13.65;5.78;;;16.40;99.90;;;;;;5113908;28;20474;-77
2023/08/02 07:59:12;;;;;;;20.90;6.60;;;16.40;99.90;;;;;;5094184;28;20043;-76
2023/08/02 08:01:37;;;;;;;15.85;5.25;;;16.40;99.90;;;;;;5092900;28;20554;-77
2023/08/02 08:04:03;;;;;;;9.98;5.03;;;16.40;99.90;;;;;;5096377;28;20044;-77
2023/08/02 08:06:29;;;;;;;11.52;5.13;;;16.40;99.90;;;;;;5106959;28;20036;-77
2023/08/02 08:08:55;;;;;;;12.73;5.10;;;16.40;99.90;;;;;;5093704;28;20067;-76
2023/08/02 08:11:20;;;;;;;12.45;4.70;;;16.40;99.90;;;;;;5093935;28;20102;-77
2023/08/02 08:13:46;;;;;;;12.88;5.13;;;16.40;99.90;;;;;;5093361;28;20048;-77
2023/08/02 08:16:11;;;;;;;13.32;5.00;;;16.40;99.90;;;;;;5094127;28;20115;-76
2023/08/02 08:18:37;;;;;;;12.15;5.22;;;16.30;99.90;;;;;;5093760;28;20090;-77
2023/08/02 08:21:04;;;;;;;13.75;4.78;;;16.30;99.90;;;;;;5108290;28;20051;-77
2023/08/02 08:23:31;;;;;;;12.93;5.25;;;16.30;99.90;;;;;;5094044;28;20503;-76
2023/08/02 08:25:58;;;;;;;20.55;6.15;;;16.30;99.90;;;;;;5109462;28;20128;-78
2023/08/02 08:28:24;;;;;;;14.45;4.97;;;16.30;99.90;;;;;;5114287;28;20458;-78
2023/08/02 08:31:01;;;;;;;12.52;5.00;;;16.20;99.90;;;;;;5108902;28;20044;-78
2023/08/02 08:33:27;;;;;;;12.52;5.13;;;16.20;99.90;;;;;;5065745;28;20512;-78
2023/08/02 08:35:52;;;;;;;12.73;5.55;;;16.10;99.90;;;;;;5112742;28;20039;-80
2023/08/02 08:38:18;;;;;;;11.57;5.28;;;16.10;99.90;;;;;;5114411;28;20047;-76
2023/08/02 08:40:50;;;;;;;14.82;6.50;;;16.00;99.90;;;;;;5113982;28;20040;-74
2023/08/02 08:43:16;;;;;;;15.25;5.50;;;16.00;99.90;;;;;;5099501;28;20123;-75
2023/08/02 08:45:43;;;;;;;20.33;5.35;;;15.90;99.90;;;;;;5108827;28;20071;-75
2023/08/02 08:48:09;;;;;;;12.27;5.55;;;15.90;99.90;;;;;;5112309;28;20046;-76
2023/08/02 08:50:41;;;;;;;17.65;5.55;;;15.80;99.90;;;;;;5105609;28;20040;-76
2023/08/02 08:53:10;;;;;;;11.75;5.35;;;15.80;99.90;;;;;;5112765;28;20052;-77
2023/08/02 08:55:37;;;;;;;17.33;5.45;;;15.80;99.90;;;;;;5105799;28;20115;-77
2023/08/02 08:58:03;;;;;;;16.75;5.75;;;15.70;99.90;;;;;;5094029;28;20040;-77
2023/08/02 09:00:31;;;;;;;14.93;5.50;;;15.70;99.90;;;;;;5092534;28;20040;-77
2023/08/02 09:02:59;;;;;;;14.38;6.57;;;15.60;99.90;;;;;;5093655;28;20040;-76
2023/08/02 09:05:27;;;;;;;20.23;6.85;;;15.60;99.90;;;;;;5104383;28;20135;-76
2023/08/02 09:07:58;;;;;;;18.15;6.68;;;15.60;99.90;;;;;;5112053;28;20081;-75
2023/08/02 09:10:24;;;;;;;22.17;6.78;;;15.50;99.90;;;;;;5098106;28;20108;-76
2023/08/02 09:12:49;;;;;;;17.98;6.15;;;15.40;99.90;;;;;;5093552;28;20537;-76
2023/08/02 09:15:15;;;;;;;19.50;6.40;;;15.40;99.90;;;;;;5101723;28;20059;-76
2023/08/02 09:17:48;;;;;;;13.10;6.45;;;15.30;99.90;;;;;;5093582;28;20070;-77
2023/08/02 09:20:14;;;;;;;16.10;6.18;;;15.30;99.90;;;;;;5112171;28;20064;-76
2023/08/02 09:22:40;;;;;;;14.50;6.18;;;15.20;99.90;;;;;;5118107;28;20046;-77
2023/08/02 09:25:11;;;;;;;17.08;5.97;;;15.20;99.90;;;;;;5113259;28;20032;-76
2023/08/02 09:27:37;;;;;;;15.80;6.38;;;15.20;99.90;;;;;;5096907;28;20554;-78
2023/08/02 09:30:03;;;;;;;22.05;6.50;;;15.20;99.90;;;;;;5103127;28;20044;-77
2023/08/02 09:32:29;;;;;;;16.30;6.47;;;15.20;99.90;;;;;;5116829;28;20056;-78
2023/08/02 09:34:57;;;;;;;20.33;7.43;;;15.20;99.90;;;;;;5109010;28;20098;-77
2023/08/02 09:37:36;;;;;;;20.45;6.53;;;15.20;99.90;;;;;;5097128;28;20058;-77
2023/08/02 09:40:09;;;;;;;18.33;6.40;;;15.20;99.90;;;;;;5105178;28;20035;-77
2023/08/02 09:42:35;;;;;;;15.43;6.95;;;15.20;99.90;;;;;;5105765;28;20048;-78
2023/08/02 09:45:03;;;;;;;15.30;7.22;;;15.10;99.90;;;;;;5097161;28;20359;-77
2023/08/02 09:47:29;;;;;;;20.85;7.57;;;15.10;99.90;;;;;;5107243;28;20127;-77
2023/08/02 09:50:08;;;;;;;17.52;6.93;;;15.10;99.90;;;;;;5085338;28;20135;-78
2023/08/02 09:52:36;;;;;;;15.48;7.07;;;15.10;99.90;;;;;;5098640;28;20047;-80
2023/08/02 09:55:02;;;;;;;16.40;7.65;;;15.20;99.90;;;;;;5098711;28;20386;-78
2023/08/02 09:57:29;;;;;;;20.17;7.95;;;15.20;99.90;;;;;;5103742;28;20044;-77
2023/08/02 09:59:58;;;;;;;14.82;8.05;;;15.20;99.90;;;;;;5104564;28;20048;-78
2023/08/02 10:02:25;;;;;;;14.45;8.77;;;15.20;99.90;;;;;;5118024;28;20040;-77
2023/08/02 10:04:59;;;;;;;20.25;8.77;;;15.30;99.90;;;;;;5116074;28;20032;-76
2023/08/02 10:07:52;;;;;;;24.73;8.27;;;15.30;99.90;;;;;;5099578;28;20040;-78
2023/08/02 10:10:39;;;;;;;21.23;8.95;;;15.30;99.90;;;;;;5106127;28;20047;-78
2023/08/02 10:13:17;;;;;;;19.55;9.75;;;15.30;99.90;;;;;;5102684;28;20520;-77
2023/08/02 10:15:43;;;;;;;19.95;9.55;;;15.30;99.90;;;;;;5117636;28;20040;-78
2023/08/02 10:18:10;;;;;;;20.15;9.57;;;15.30;99.90;;;;;;5102299;28;20127;-77
2023/08/02 10:20:38;;;;;;;20.70;10.50;;;15.30;99.90;;;;;;5110931;28;20058;-77
2023/08/02 10:23:06;;;;;;;19.00;10.10;;;15.30;99.90;;;;;;5115539;28;20074;-77
2023/08/02 10:25:35;;;;;;;18.25;10.45;;;15.30;99.90;;;;;;5104727;28;20046;-76
2023/08/02 10:28:01;;;;;;;18.92;9.90;;;15.30;99.90;;;;;;5116846;28;20449;-77
2023/08/02 10:30:29;;;;;;;23.45;10.18;;;15.30;99.90;;;;;;5119821;28;20048;-76
2023/08/02 10:33:21;;;;;;;21.65;10.95;;;15.30;99.90;;;;;;5104647;28;20044;-75
2023/08/02 10:36:01;;;;;;;18.25;10.10;;;15.30;99.90;;;;;;5106276;28;20048;-76
2023/08/02 10:38:46;;;;;;;23.20;11.93;;;15.30;99.90;;;;;;5107469;28;20100;-76
2023/08/02 10:41:11;;;;;;;23.25;11.45;;;15.30;99.90;;;;;;5083702;28;20071;-77
2023/08/02 10:43:55;;;;;;;27.67;12.35;;;15.30;99.90;;;;;;5112208;28;20082;-75
2023/08/02 10:46:24;;;;;;;24.65;12.60;;;15.30;99.90;;;;;;5102719;28;20126;-77
2023/08/02 10:49:10;;;;;;;24.25;11.10;;;15.40;99.90;;;;;;5112725;28;20043;-77
2023/08/02 10:51:37;;;;;;;21.25;11.40;;;15.40;99.90;;;;;;5108326;28;20052;-76
2023/08/02 10:54:23;;;;;;;21.65;11.02;;;15.40;99.90;;;;;;5108370;28;20138;-78
2023/08/02 10:56:51;;;;;;;22.52;11.18;;;15.50;99.90;;;;;;5105370;28;20069;-76
2023/08/02 10:59:36;;;;;;;16.58;8.93;;;15.50;99.90;;;;;;5114797;27;20124;-75
2023/08/02 11:02:12;;;;;;;14.55;8.93;;;15.50;99.90;;;;;;5113144;28;20134;-74
2023/08/02 11:04:44;;;;;;;16.85;7.03;;;15.60;99.90;;;;;;5112263;28;20052;-77
2023/08/02 11:07:18;;;;;;;12.45;6.65;;;15.60;99.90;;;;;;5108086;28;20047;-75
2023/08/02 11:09:51;;;;;;;11.55;7.35;;;15.60;99.90;;;;;;5097801;28;20082;-77
2023/08/02 11:12:19;;;;;;;9.10;6.07;;;15.60;99.90;;;;;;5096255;28;20051;-79
2023/08/02 11:14:50;;;;;;;13.07;6.78;;;15.70;99.90;;;;;;5104006;28;20055;-77
2023/08/02 11:17:21;;;;;;;11.43;7.18;;;15.70;99.90;;;;;;5119931;28;20051;-79
2023/08/02 11:19:50;;;;;;;15.60;6.72;;;15.80;99.90;;;;;;5115816;28;20051;-78
2023/08/02 11:22:17;;;;;;;8.95;6.13;;;15.80;99.90;;;;;;5122515;28;20043;-77
2023/08/02 11:24:50;;;;;;;8.07;5.57;;;15.80;99.90;;;;;;5112378;28;20036;-78
2023/08/02 11:27:23;;;;;;;10.48;5.30;;;15.80;99.90;;;;;;5101050;28;20035;-77
2023/08/02 11:30:03;;;;;;;9.35;5.25;;;15.80;99.90;;;;;;5101388;28;20048;-78
2023/08/02 11:32:30;;;;;;;8.85;5.18;;;15.80;99.90;;;;;;5105110;28;20148;-77
2023/08/02 11:34:56;;;;;;;8.40;5.05;;;15.80;99.90;;;;;;5105142;28;20046;-77
2023/08/02 11:37:22;;;;;;;8.85;5.53;;;15.80;99.90;;;;;;5105325;28;20122;-78
2023/08/02 11:39:52;;;;;;;12.07;5.55;;;15.90;99.90;;;;;;5120447;28;20047;-77
2023/08/02 11:42:18;;;;;;;7.40;4.50;;;15.80;99.90;;;;;;5109912;28;20079;-78
2023/08/02 11:44:47;;;;;;;7.55;4.32;;;15.90;99.90;;;;;;5115901;28;20039;-76
2023/08/02 11:47:12;;;;;;;9.48;5.22;;;16.00;99.90;;;;;;5097765;28;20070;-77
2023/08/02 11:49:49;;;;;;;9.40;5.05;;;15.90;99.90;;;;;;5117199;28;20043;-77
2023/08/02 11:52:27;;;;;;;8.13;5.10;;;15.90;99.90;;;;;;5115914;28;20047;-77
2023/08/02 11:54:53;;;;;;;10.10;5.40;;;16.00;99.90;;;;;;5121208;28;20063;-77
2023/08/02 11:57:20;;;;;;;6.85;4.75;;;16.00;99.90;;;;;;5109599;28;20300;-77
2023/08/02 11:59:47;;;;;;;8.48;4.18;;;16.10;99.90;;;;;;5105341;28;20039;-77
2023/08/02 12:02:36;;;;;;;10.65;4.45;;;16.10;99.90;;;;;;5108565;28;20039;-77
2023/08/02 12:05:05;;;;;;;6.90;4.47;;;16.10;99.90;;;;;;5127108;28;20070;-77
2023/08/02 12:07:35;;;;;;;10.50;5.22;;;16.20;99.90;;;;;;5113716;28;20052;-80
2023/08/02 12:10:03;;;;;;;8.63;4.78;;;16.20;99.90;;;;;;5112739;28;20051;-78
2023/08/02 12:12:30;;;;;;;5.75;4.03;;;16.30;99.90;;;;;;5105427;28;20063;-76
2023/08/02 12:14:56;;;;;;;6.63;4.40;;;16.30;99.90;;;;;;5122472;28;20039;-75
2023/08/02 12:17:23;;;;;;;4.60;3.55;;;16.30;99.90;;;;;;5105452;28;20044;-76
2023/08/02 12:19:49;;;;;;;7.00;3.85;;;16.30;99.90;;;;;;5100630;28;20522;-76
2023/08/02 12:22:17;;;;;;;5.63;3.72;;;16.40;99.90;;;;;;5099503;28;20502;-76
2023/08/02 12:24:42;;;;;;;7.63;4.68;;;16.40;99.90;;;;;;5102409;28;20040;-76
2023/08/02 12:27:11;;;;;;;7.20;3.90;;;16.50;99.90;;;;;;5080472;28;20177;-78
2023/08/02 12:29:37;;;;;;;5.65;4.00;;;16.50;99.90;;;;;;5101720;28;20100;-77
2023/08/02 12:32:03;;;;;;;6.80;4.30;;;16.90;99.90;;;;;;5118435;28;20097;-77
2023/08/02 12:34:28;;;;;;;9.85;4.35;;;16.60;99.90;;;;;;5118135;28;20437;-77
2023/08/02 12:36:56;;;;;;;6.03;4.22;;;16.70;99.90;;;;;;5113771;28;20044;-78
2023/08/02 12:39:22;;;;;;;7.25;3.88;;;16.70;99.90;;;;;;5118690;28;20040;-79